Time;durP1;ratioP1;P1;durP2;ratioP2;P2;SDS_P1;SDS_P2;PMS_P1;PMS_P2;Temp;Humidity;BMP_temperature;BMP_pressure;BME280_temperature;BME280_humidity;BME280_pressure;Samples;Min_cycle;Max_cycle;Signal;HPM_P1;HPM_P2
2022/09/11 00:02:06;;;;;;;0.00;0.00;;;21.80;74.20;;;;;;4161005;28;20483;-68
2022/09/11 00:04:47;;;;;;;0.13;0.13;;;21.80;74.20;;;;;;4160218;28;20053;-67
2022/09/11 00:07:29;;;;;;;0.55;0.55;;;21.80;75.10;;;;;;4177018;28;20395;-68
2022/09/11 00:10:10;;;;;;;0.20;0.20;;;21.80;74.30;;;;;;4160312;28;20200;-67
2022/09/11 00:12:52;;;;;;;0.65;0.65;;;21.80;74.30;;;;;;4160329;28;20090;-67
2022/09/11 00:15:36;;;;;;;0.05;0.05;;;21.80;74.20;;;;;;4171850;28;20060;-68
2022/09/11 00:18:21;;;;;;;0.10;0.10;;;21.80;74.60;;;;;;4160577;28;20170;-68
2022/09/11 00:21:04;;;;;;;0.20;0.20;;;21.80;75.20;;;;;;4175529;28;20052;-68
2022/09/11 00:23:45;;;;;;;0.00;0.00;;;21.80;74.20;;;;;;4175404;28;20106;-67
2022/09/11 00:26:26;;;;;;;0.22;0.22;;;21.80;74.30;;;;;;4176281;28;20122;-68
2022/09/11 00:29:07;;;;;;;0.00;0.00;;;21.70;74.30;;;;;;4175751;28;20060;-67
2022/09/11 00:31:49;;;;;;;0.20;0.20;;;21.70;74.30;;;;;;4175494;28;20052;-68
2022/09/11 00:34:31;;;;;;;0.17;0.17;;;21.80;74.30;;;;;;4159845;28;20055;-67
2022/09/11 00:37:12;;;;;;;0.60;0.38;;;21.70;74.30;;;;;;4170541;28;20260;-67
2022/09/11 00:39:53;;;;;;;0.00;0.00;;;21.70;75.10;;;;;;4158153;28;20476;-68
2022/09/11 00:42:34;;;;;;;;;;;21.70;74.30;;;;;;4158848;28;20443;-67
2022/09/11 00:45:21;;;;;;;0.52;0.52;;;21.70;74.30;;;;;;4159782;28;19935;-66
2022/09/11 00:48:03;;;;;;;0.00;0.00;;;21.70;74.40;;;;;;4158948;28;20051;-68
2022/09/11 00:50:45;;;;;;;0.28;0.28;;;21.70;74.40;;;;;;4159516;28;20076;-67
2022/09/11 00:53:30;;;;;;;0.00;0.00;;;21.70;74.50;;;;;;4144753;28;20381;-67
2022/09/11 00:56:11;;;;;;;0.30;0.30;;;21.70;74.40;;;;;;4157823;28;20184;-67
2022/09/11 00:58:54;;;;;;;0.00;0.00;;;21.70;74.40;;;;;;4158073;28;20060;-66
2022/09/11 01:01:36;;;;;;;0.00;0.00;;;21.70;74.50;;;;;;4158436;28;20047;-67
2022/09/11 01:04:16;;;;;;;0.00;0.00;;;21.70;74.40;;;;;;4169604;28;20055;-67
2022/09/11 01:07:00;;;;;;;0.10;0.10;;;21.70;74.50;;;;;;4174441;28;20110;-67
2022/09/11 01:09:42;;;;;;;0.82;0.82;;;21.70;74.60;;;;;;4174351;28;20064;-67
2022/09/11 01:12:28;;;;;;;0.17;0.17;;;21.70;74.60;;;;;;4176080;28;20060;-66
2022/09/11 01:15:14;;;;;;;0.40;0.40;;;21.70;74.60;;;;;;4175814;28;20052;-66
2022/09/11 01:18:03;;;;;;;0.00;0.00;;;21.70;74.60;;;;;;4158258;28;20182;-67
2022/09/11 01:21:00;;;;;;;1.08;1.08;;;21.70;74.60;;;;;;4158430;28;20060;-67
2022/09/11 01:24:08;;;;;;;0.00;0.00;;;21.70;74.60;;;;;;4165078;28;20055;-67
2022/09/11 01:27:14;;;;;;;0.38;0.38;;;21.70;74.60;;;;;;4174265;28;20126;-68
2022/09/11 01:30:01;;;;;;;0.00;0.00;;;21.60;74.50;;;;;;4157476;28;20122;-68
2022/09/11 01:33:12;;;;;;;0.10;0.10;;;21.60;74.50;;;;;;4157957;28;20060;-66
2022/09/11 01:35:59;;;;;;;0.00;0.00;;;21.60;74.50;;;;;;4157842;28;20442;-66
2022/09/11 01:38:45;;;;;;;0.10;0.10;;;21.60;74.50;;;;;;4157973;28;20156;-63
2022/09/11 01:41:31;;;;;;;0.10;0.10;;;21.60;74.50;;;;;;4173675;28;20142;-63
2022/09/11 01:44:20;;;;;;;0.03;0.03;;;21.60;74.50;;;;;;4174255;28;20056;-63
2022/09/11 01:47:06;;;;;;;0.47;0.47;;;21.60;74.60;;;;;;4173914;28;20052;-63
2022/09/11 01:49:53;;;;;;;0.00;0.00;;;21.60;74.60;;;;;;4175429;28;20052;-62
2022/09/11 01:52:54;;;;;;;0.20;0.20;;;21.60;74.50;;;;;;4173665;28;20471;-63
2022/09/11 01:55:40;;;;;;;0.00;0.00;;;21.60;74.60;;;;;;4173980;28;20410;-67
2022/09/11 01:58:24;;;;;;;1.65;1.10;;;21.60;74.50;;;;;;4174131;28;20068;-68
2022/09/11 02:01:10;;;;;;;0.00;0.00;;;21.60;74.60;;;;;;4174526;28;20052;-68
2022/09/11 02:03:56;;;;;;;0.98;0.98;;;21.60;74.60;;;;;;4173863;28;20098;-68
2022/09/11 02:06:44;;;;;;;2.05;1.88;;;21.60;74.70;;;;;;4173593;28;20056;-68
2022/09/11 02:09:30;;;;;;;1.88;0.73;;;21.60;74.60;;;;;;4173127;28;20055;-68
2022/09/11 02:12:16;;;;;;;0.08;0.08;;;21.60;74.60;;;;;;4174113;28;20162;-68
2022/09/11 02:14:58;;;;;;;0.10;0.10;;;21.60;74.60;;;;;;4173605;28;20061;-68
2022/09/11 02:17:43;;;;;;;;;;;21.60;74.60;;;;;;4173643;28;20090;-68
2022/09/11 02:20:25;;;;;;;1.95;1.55;;;21.60;74.60;;;;;;4156759;28;19932;-68
2022/09/11 02:23:07;;;;;;;0.08;0.08;;;21.60;74.60;;;;;;4157279;28;20056;-67
2022/09/11 02:25:47;;;;;;;0.00;0.00;;;21.60;74.70;;;;;;4147752;28;20053;-68
2022/09/11 02:28:29;;;;;;;0.00;0.00;;;21.50;74.70;;;;;;4148414;28;20067;-67
2022/09/11 02:31:11;;;;;;;0.40;0.40;;;21.50;74.80;;;;;;4156765;28;20060;-67
2022/09/11 02:33:52;;;;;;;0.00;0.00;;;21.50;75.60;;;;;;4158165;28;20057;-67
2022/09/11 02:36:47;;;;;;;0.00;0.00;;;21.50;74.80;;;;;;4174657;28;20498;-67
2022/09/11 02:39:59;;;;;;;0.03;0.03;;;21.50;75.70;;;;;;4157036;28;20068;-67
2022/09/11 02:42:50;;;;;;;0.10;0.10;;;21.50;74.70;;;;;;4173011;28;20379;-67
2022/09/11 02:45:40;;;;;;;0.00;0.00;;;21.50;74.70;;;;;;4174739;28;21561;-67
2022/09/11 02:48:40;;;;;;;1.55;0.75;;;21.50;75.60;;;;;;4173327;28;20067;-69
2022/09/11 02:51:28;;;;;;;0.75;0.75;;;21.50;74.80;;;;;;4184225;28;20060;-67
2022/09/11 02:54:23;;;;;;;0.00;0.00;;;21.50;74.70;;;;;;4172591;28;20056;-67
2022/09/11 02:57:11;;;;;;;3.88;1.20;;;21.50;74.70;;;;;;4173956;28;20194;-67
2022/09/11 02:59:55;;;;;;;0.00;0.00;;;21.50;74.80;;;;;;4156827;28;20142;-68
2022/09/11 03:02:40;;;;;;;0.00;0.00;;;21.50;74.80;;;;;;4156715;28;20064;-68
2022/09/11 03:05:22;;;;;;;0.57;0.57;;;21.50;74.80;;;;;;4168241;28;20052;-68
2022/09/11 03:08:03;;;;;;;;;;;21.40;74.70;;;;;;4163916;28;20074;-68
2022/09/11 03:10:45;;;;;;;;;;;21.40;74.70;;;;;;4158647;28;19928;-70
2022/09/11 03:13:26;;;;;;;6.40;1.23;;;21.40;74.70;;;;;;4168248;28;19932;-71
2022/09/11 03:16:07;;;;;;;1.15;1.15;;;21.40;74.70;;;;;;4145527;28;20049;-69
2022/09/11 03:18:48;;;;;;;0.00;0.00;;;21.40;74.90;;;;;;4157836;28;20060;-68
2022/09/11 03:21:30;;;;;;;0.08;0.08;;;21.40;74.90;;;;;;4167978;28;20056;-67
2022/09/11 03:24:12;;;;;;;0.10;0.10;;;21.40;75.80;;;;;;4156696;28;20056;-68
2022/09/11 03:26:54;;;;;;;0.00;0.00;;;21.40;74.90;;;;;;4157436;28;20503;-68
2022/09/11 03:29:36;;;;;;;0.00;0.00;;;21.40;74.90;;;;;;4156459;28;20064;-68
2022/09/11 03:32:18;;;;;;;0.00;0.00;;;21.40;75.00;;;;;;4156553;28;20069;-67
2022/09/11 03:35:00;;;;;;;0.00;0.00;;;21.40;75.00;;;;;;4156974;28;20455;-67
2022/09/11 03:37:46;;;;;;;0.00;0.00;;;21.40;74.90;;;;;;4164633;28;20179;-67
2022/09/11 03:40:27;;;;;;;0.00;0.00;;;21.40;74.90;;;;;;4172875;28;20128;-67
2022/09/11 03:43:12;;;;;;;0.10;0.10;;;21.40;74.90;;;;;;4159572;28;20451;-67
2022/09/11 03:45:53;;;;;;;0.00;0.00;;;21.40;74.90;;;;;;4168642;28;20057;-67
2022/09/11 03:48:33;;;;;;;0.00;0.00;;;21.40;74.80;;;;;;4171507;28;20130;-68
2022/09/11 03:51:16;;;;;;;;;;;21.40;74.80;;;;;;4172237;28;20453;-67
2022/09/11 03:53:59;;;;;;;0.10;0.10;;;21.30;74.80;;;;;;4173130;28;19931;-67
2022/09/11 03:56:41;;;;;;;0.00;0.00;;;21.30;74.80;;;;;;4174292;28;20115;-67
2022/09/11 03:59:24;;;;;;;0.32;0.32;;;21.30;74.70;;;;;;4173180;28;20498;-68
2022/09/11 04:02:05;;;;;;;0.00;0.00;;;21.30;74.80;;;;;;4174333;28;20134;-69
2022/09/11 04:04:46;;;;;;;0.28;0.28;;;21.30;74.80;;;;;;4171221;28;20072;-68
2022/09/11 04:07:30;;;;;;;0.00;0.00;;;21.30;74.80;;;;;;4175759;28;20059;-67
2022/09/11 04:10:11;;;;;;;1.02;0.75;;;21.30;74.80;;;;;;4176277;28;20044;-68
2022/09/11 04:12:52;;;;;;;0.20;0.20;;;21.30;74.80;;;;;;4159109;28;20053;-67
2022/09/11 04:15:36;;;;;;;0.00;0.00;;;21.30;74.80;;;;;;4170493;28;20126;-67
2022/09/11 04:18:17;;;;;;;0.00;0.00;;;21.20;74.60;;;;;;4160287;28;20345;-67
2022/09/11 04:20:58;;;;;;;0.00;0.00;;;21.30;74.80;;;;;;4176391;28;20175;-67
2022/09/11 04:23:40;;;;;;;0.68;0.68;;;21.30;74.70;;;;;;4176577;28;20056;-67
2022/09/11 04:26:23;;;;;;;0.10;0.10;;;21.30;74.70;;;;;;4174750;28;20052;-67
2022/09/11 04:29:08;;;;;;;0.00;0.00;;;21.30;74.60;;;;;;4173610;28;20060;-67
2022/09/11 04:31:50;;;;;;;0.00;0.00;;;21.20;74.60;;;;;;4165532;28;20484;-68
2022/09/11 04:34:31;;;;;;;0.00;0.00;;;21.20;75.40;;;;;;4158473;28;20056;-68
2022/09/11 04:37:12;;;;;;;0.00;0.00;;;21.20;74.50;;;;;;4152626;28;20056;-66
2022/09/11 04:39:53;;;;;;;0.00;0.00;;;21.20;74.60;;;;;;4170101;28;20055;-68
2022/09/11 04:42:34;;;;;;;0.13;0.13;;;21.20;74.60;;;;;;4169816;28;20056;-69
2022/09/11 04:45:15;;;;;;;0.52;0.52;;;21.20;74.70;;;;;;4159633;28;20049;-68
2022/09/11 04:47:58;;;;;;;0.10;0.10;;;21.20;74.70;;;;;;4158357;28;20056;-69
2022/09/11 04:50:40;;;;;;;0.00;0.00;;;21.20;74.60;;;;;;4181285;28;20337;-68
2022/09/11 04:53:28;;;;;;;0.00;0.00;;;21.20;74.60;;;;;;4180764;28;20068;-68
2022/09/11 04:56:12;;;;;;;0.00;0.00;;;21.20;74.70;;;;;;4157828;28;20064;-68
2022/09/11 04:58:58;;;;;;;0.00;0.00;;;21.20;74.60;;;;;;4167125;28;20487;-67
2022/09/11 05:01:41;;;;;;;0.00;0.00;;;21.20;74.60;;;;;;4147259;28;20068;-68
2022/09/11 05:04:24;;;;;;;0.00;0.00;;;21.10;74.50;;;;;;4159484;28;20123;-67
2022/09/11 05:07:07;;;;;;;0.75;0.75;;;21.20;74.60;;;;;;4174795;28;20519;-67
2022/09/11 05:09:48;;;;;;;0.00;0.00;;;21.20;74.60;;;;;;4186356;28;20514;-68
2022/09/11 05:12:31;;;;;;;0.00;0.00;;;21.10;74.60;;;;;;4174599;28;20052;-68
2022/09/11 05:15:12;;;;;;;;;;;21.20;74.60;;;;;;4173682;28;20071;-68
2022/09/11 05:17:54;;;;;;;0.00;0.00;;;21.10;74.60;;;;;;4173108;28;19935;-68
2022/09/11 05:20:36;;;;;;;0.00;0.00;;;21.10;75.40;;;;;;4174770;28;20051;-68
2022/09/11 05:23:17;;;;;;;0.00;0.00;;;21.10;74.60;;;;;;4175651;28;20502;-67
2022/09/11 05:25:59;;;;;;;0.00;0.00;;;21.10;75.20;;;;;;4174615;28;20055;-67
2022/09/11 05:28:39;;;;;;;;;;;21.10;75.20;;;;;;4175007;28;20129;-67
2022/09/11 05:31:24;;;;;;;0.00;0.00;;;21.10;75.90;;;;;;4174828;28;19931;-67
2022/09/11 05:34:06;;;;;;;0.00;0.00;;;21.20;75.90;;;;;;4174694;28;20052;-64
2022/09/11 05:36:48;;;;;;;0.10;0.10;;;21.10;75.00;;;;;;4164310;28;20414;-65
2022/09/11 05:39:30;;;;;;;0.45;0.45;;;21.10;75.00;;;;;;4175444;28;20067;-66
2022/09/11 05:42:14;;;;;;;0.00;0.00;;;21.10;75.00;;;;;;4174077;28;20118;-67
2022/09/11 05:44:59;;;;;;;0.00;0.00;;;21.10;75.10;;;;;;4157985;28;20053;-67
2022/09/11 05:47:41;;;;;;;0.00;0.00;;;21.10;75.10;;;;;;4169062;28;20067;-66
2022/09/11 05:50:22;;;;;;;0.25;0.25;;;21.10;75.10;;;;;;4174302;28;20178;-67
2022/09/11 05:53:05;;;;;;;0.55;0.55;;;21.10;75.20;;;;;;4174342;28;20091;-66
2022/09/11 05:55:50;;;;;;;0.00;0.00;;;21.10;75.20;;;;;;4173548;28;20060;-68
2022/09/11 05:58:32;;;;;;;0.00;0.00;;;21.10;75.20;;;;;;4157590;28;20104;-64
2022/09/11 06:01:15;;;;;;;0.00;0.00;;;21.10;75.30;;;;;;4173907;28;20051;-65
2022/09/11 06:03:58;;;;;;;0.00;0.00;;;21.10;75.20;;;;;;4159034;28;20199;-65
2022/09/11 06:06:39;;;;;;;0.35;0.35;;;21.10;75.30;;;;;;4172561;28;20427;-64
2022/09/11 06:09:22;;;;;;;0.00;0.00;;;21.10;75.30;;;;;;4173952;28;20047;-63
2022/09/11 06:12:05;;;;;;;0.47;0.45;;;21.10;75.30;;;;;;4173958;28;20075;-63
2022/09/11 06:14:46;;;;;;;5.82;1.73;;;21.10;75.30;;;;;;4143715;28;20068;-64
2022/09/11 06:17:28;;;;;;;0.00;0.00;;;21.10;75.30;;;;;;4173738;28;20487;-64
2022/09/11 06:20:11;;;;;;;0.00;0.00;;;21.10;76.00;;;;;;4173859;28;20060;-64
2022/09/11 06:22:55;;;;;;;0.47;0.47;;;21.10;78.50;;;;;;4173382;28;20049;-64
2022/09/11 06:25:38;;;;;;;0.55;0.55;;;21.10;80.90;;;;;;4161756;28;20056;-64
2022/09/11 06:28:22;;;;;;;1.25;0.68;;;21.10;82.40;;;;;;4172562;28;20051;-64
2022/09/11 06:31:08;;;;;;;0.90;0.30;;;21.10;80.60;;;;;;4173031;28;20060;-64
2022/09/11 06:33:49;;;;;;;0.00;0.00;;;21.10;80.10;;;;;;4173113;28;20055;-64
2022/09/11 06:36:31;;;;;;;1.35;0.95;;;21.10;78.60;;;;;;4172726;28;20067;-64
2022/09/11 06:39:19;;;;;;;0.43;0.43;;;21.10;78.20;;;;;;4173124;28;20479;-64
2022/09/11 06:42:01;;;;;;;0.00;0.00;;;21.10;78.00;;;;;;4173133;28;20561;-64
2022/09/11 06:44:46;;;;;;;0.03;0.03;;;21.10;77.90;;;;;;4173261;28;20059;-64
2022/09/11 06:47:30;;;;;;;0.00;0.00;;;21.10;77.80;;;;;;4173226;28;20399;-64
2022/09/11 06:50:12;;;;;;;0.03;0.03;;;21.10;77.90;;;;;;4174717;28;20533;-64
2022/09/11 06:53:11;;;;;;;0.00;0.00;;;21.00;77.70;;;;;;4173037;28;20426;-68
2022/09/11 06:56:01;;;;;;;0.00;0.00;;;21.00;77.80;;;;;;4173166;28;20079;-69
2022/09/11 06:58:45;;;;;;;0.10;0.10;;;21.00;77.70;;;;;;4156812;28;20068;-69
2022/09/11 07:01:27;;;;;;;0.43;0.43;;;21.00;77.80;;;;;;4158068;28;20151;-69
2022/09/11 07:04:12;;;;;;;0.00;0.00;;;21.00;77.70;;;;;;4143030;28;20057;-65
2022/09/11 07:06:55;;;;;;;0.00;0.00;;;21.00;77.80;;;;;;4156581;28;20053;-69
2022/09/11 07:09:37;;;;;;;0.00;0.00;;;21.00;77.80;;;;;;4145454;28;20511;-69
2022/09/11 07:12:19;;;;;;;0.00;0.00;;;21.00;78.00;;;;;;4163046;28;20392;-69
2022/09/11 07:15:03;;;;;;;0.30;0.30;;;21.00;78.00;;;;;;4173241;28;20071;-69
2022/09/11 07:17:44;;;;;;;0.00;0.00;;;21.00;78.00;;;;;;4173033;28;20388;-69
2022/09/11 07:20:27;;;;;;;0.00;0.00;;;21.10;78.10;;;;;;4156541;28;20114;-69
2022/09/11 07:23:09;;;;;;;0.00;0.00;;;21.10;78.10;;;;;;4157903;28;20056;-68
2022/09/11 07:25:50;;;;;;;0.00;0.00;;;21.20;78.40;;;;;;4157207;28;20060;-65
2022/09/11 07:28:31;;;;;;;0.17;0.17;;;21.20;78.60;;;;;;4145622;28;20400;-65
2022/09/11 07:31:15;;;;;;;0.17;0.17;;;21.30;78.70;;;;;;4158054;28;20048;-65
2022/09/11 07:34:01;;;;;;;0.00;0.00;;;21.30;78.70;;;;;;4172942;28;20426;-64
2022/09/11 07:36:44;;;;;;;0.08;0.08;;;21.40;78.70;;;;;;4159442;28;20076;-64
2022/09/11 07:39:25;;;;;;;0.00;0.00;;;21.40;78.60;;;;;;4156464;28;20531;-69
2022/09/11 07:42:12;;;;;;;0.00;0.00;;;21.50;78.60;;;;;;4175923;28;20459;-68
2022/09/11 07:44:54;;;;;;;0.00;0.00;;;21.50;78.40;;;;;;4174732;28;20114;-69
2022/09/11 07:47:37;;;;;;;0.05;0.05;;;21.50;78.40;;;;;;4175941;28;20095;-69
2022/09/11 07:50:18;;;;;;;0.60;0.60;;;21.60;78.30;;;;;;4175332;28;20052;-68
2022/09/11 07:52:59;;;;;;;0.25;0.25;;;21.60;78.20;;;;;;4177147;28;20142;-68
2022/09/11 07:55:42;;;;;;;0.00;0.00;;;21.60;78.10;;;;;;4174787;28;20400;-69
2022/09/11 07:58:23;;;;;;;0.00;0.00;;;21.70;78.10;;;;;;4170516;28;20400;-68
2022/09/11 08:01:04;;;;;;;0.00;0.00;;;21.70;78.00;;;;;;4159095;28;20416;-68
2022/09/11 08:03:48;;;;;;;1.65;1.02;;;21.70;78.00;;;;;;4175176;28;20103;-68
2022/09/11 08:06:30;;;;;;;0.00;0.00;;;21.70;78.20;;;;;;4163058;28;20052;-68
2022/09/11 08:09:15;;;;;;;0.10;0.10;;;21.70;78.10;;;;;;4159043;28;20761;-68
2022/09/11 08:12:02;;;;;;;0.00;0.00;;;21.70;78.10;;;;;;4168183;28;20206;-68
2022/09/11 08:14:45;;;;;;;0.17;0.17;;;21.70;77.90;;;;;;4174108;28;20415;-68
2022/09/11 08:17:32;;;;;;;0.15;0.15;;;21.70;78.00;;;;;;4172267;28;20079;-69
2022/09/11 08:20:15;;;;;;;0.00;0.00;;;21.70;78.00;;;;;;4173579;28;20129;-68
2022/09/11 08:22:58;;;;;;;0.45;0.45;;;21.70;77.90;;;;;;4159510;28;20066;-68
2022/09/11 08:25:39;;;;;;;0.00;0.00;;;21.70;77.90;;;;;;4176814;28;20056;-68
2022/09/11 08:28:22;;;;;;;0.57;0.20;;;21.70;78.00;;;;;;4163410;28;20068;-67
2022/09/11 08:31:04;;;;;;;0.15;0.15;;;21.70;77.90;;;;;;4158144;28;20902;-68
2022/09/11 08:33:45;;;;;;;0.10;0.10;;;21.70;77.90;;;;;;4174623;28;20116;-68
2022/09/11 08:36:28;;;;;;;0.00;0.00;;;21.70;77.90;;;;;;4174829;28;20150;-68
2022/09/11 08:39:10;;;;;;;0.00;0.00;;;21.70;78.10;;;;;;4174045;28;20144;-70
2022/09/11 08:42:02;;;;;;;0.00;0.00;;;21.70;78.10;;;;;;4159672;28;20175;-67
2022/09/11 08:44:48;;;;;;;0.00;0.00;;;21.70;78.10;;;;;;4185761;28;20062;-63
2022/09/11 08:47:57;;;;;;;0.17;0.17;;;21.70;78.20;;;;;;4180619;28;20056;-63
2022/09/11 08:50:41;;;;;;;0.10;0.10;;;21.70;78.20;;;;;;4170970;28;20068;-63
2022/09/11 08:53:30;;;;;;;0.00;0.00;;;21.70;78.20;;;;;;4174669;28;20052;-63
2022/09/11 08:56:17;;;;;;;0.00;0.00;;;21.80;78.50;;;;;;4174590;28;20499;-63
2022/09/11 08:59:18;;;;;;;0.10;0.10;;;21.80;78.30;;;;;;4174269;28;20411;-64
2022/09/11 09:02:13;;;;;;;0.10;0.10;;;21.90;78.10;;;;;;4174048;28;20059;-64
2022/09/11 09:05:09;;;;;;;0.00;0.00;;;21.90;77.90;;;;;;4157302;28;20603;-64
2022/09/11 09:08:04;;;;;;;0.43;0.40;;;21.90;77.60;;;;;;4159166;28;20400;-63
2022/09/11 09:10:52;;;;;;;0.05;0.05;;;21.90;77.60;;;;;;4170767;28;20083;-63
2022/09/11 09:13:52;;;;;;;0.03;0.03;;;22.00;77.60;;;;;;4174572;28;20519;-63
2022/09/11 09:16:45;;;;;;;0.15;0.15;;;22.00;77.60;;;;;;4174197;28;20059;-63
2022/09/11 09:19:32;;;;;;;0.32;0.32;;;22.10;77.40;;;;;;4159201;28;20456;-65
2022/09/11 09:22:21;;;;;;;0.00;0.00;;;22.10;77.30;;;;;;4158231;28;20092;-62
2022/09/11 09:25:09;;;;;;;0.00;0.00;;;22.20;77.10;;;;;;4160542;28;20068;-62
2022/09/11 09:27:59;;;;;;;0.17;0.17;;;22.10;76.90;;;;;;4169270;28;20056;-61
2022/09/11 09:30:49;;;;;;;0.43;0.43;;;22.10;76.70;;;;;;4157863;28;20106;-62
2022/09/11 09:33:33;;;;;;;0.80;0.47;;;22.10;76.60;;;;;;4169230;28;20641;-63
2022/09/11 09:36:19;;;;;;;0.00;0.00;;;22.10;76.50;;;;;;4158151;28;20056;-62
2022/09/11 09:39:02;;;;;;;0.00;0.00;;;22.10;76.40;;;;;;4157774;28;20056;-61
2022/09/11 09:42:15;;;;;;;0.20;0.20;;;22.10;76.40;;;;;;4162192;28;20064;-62
2022/09/11 09:45:13;;;;;;;0.52;0.52;;;22.10;76.50;;;;;;4173403;28;20125;-63
2022/09/11 09:47:54;;;;;;;0.08;0.08;;;22.10;76.50;;;;;;4174234;28;20465;-66
2022/09/11 09:50:38;;;;;;;0.00;0.00;;;22.00;76.40;;;;;;4175113;28;20056;-65
2022/09/11 09:53:30;;;;;;;0.13;0.13;;;22.10;76.40;;;;;;4175441;28;20302;-63
2022/09/11 09:56:16;;;;;;;0.00;0.00;;;22.00;76.40;;;;;;4174732;28;20200;-63
2022/09/11 09:59:02;;;;;;;0.00;0.00;;;22.00;77.20;;;;;;4174293;28;20185;-62
2022/09/11 10:01:46;;;;;;;0.10;0.10;;;22.00;76.40;;;;;;4174893;28;20122;-63
2022/09/11 10:04:29;;;;;;;0.00;0.00;;;22.00;76.80;;;;;;4174562;28;20076;-63
2022/09/11 10:07:13;;;;;;;0.43;0.22;;;22.00;76.90;;;;;;4174622;28;20827;-62
2022/09/11 10:10:02;;;;;;;0.00;0.00;;;22.00;77.10;;;;;;4173063;28;20063;-63
2022/09/11 10:12:45;;;;;;;0.10;0.10;;;21.90;77.00;;;;;;4174204;28;20064;-63
2022/09/11 10:15:28;;;;;;;0.00;0.00;;;22.00;77.10;;;;;;4174437;28;20348;-63
2022/09/11 10:18:24;;;;;;;0.15;0.15;;;21.90;77.00;;;;;;4174971;28;20052;-63
2022/09/11 10:21:20;;;;;;;0.10;0.10;;;22.00;77.00;;;;;;4174195;28;20378;-63
2022/09/11 10:24:03;;;;;;;0.00;0.00;;;22.00;77.00;;;;;;4156801;28;20110;-62
2022/09/11 10:26:49;;;;;;;0.00;0.00;;;22.00;76.90;;;;;;4156676;28;20090;-63
2022/09/11 10:29:30;;;;;;;0.00;0.00;;;22.00;76.90;;;;;;4165628;28;20427;-62
2022/09/11 10:32:16;;;;;;;0.00;0.00;;;22.00;76.80;;;;;;4174117;28;20111;-62
2022/09/11 10:34:59;;;;;;;0.00;0.00;;;22.00;76.70;;;;;;4173997;28;20526;-62
2022/09/11 10:37:40;;;;;;;1.33;1.30;;;22.00;76.70;;;;;;4169167;28;20145;-62
2022/09/11 10:40:23;;;;;;;0.00;0.00;;;22.00;76.70;;;;;;4155292;28;20086;-62
2022/09/11 10:43:04;;;;;;;0.00;0.00;;;22.10;76.60;;;;;;4161146;28;20151;-62
2022/09/11 10:46:03;;;;;;;0.00;0.00;;;22.10;76.50;;;;;;4157682;28;20076;-63
2022/09/11 10:48:50;;;;;;;0.00;0.00;;;22.10;76.20;;;;;;4157418;28;20075;-62
2022/09/11 10:51:35;;;;;;;0.00;0.00;;;22.10;76.00;;;;;;4158327;28;20055;-62
2022/09/11 10:54:26;;;;;;;0.00;0.00;;;22.10;75.90;;;;;;4159472;28;20048;-63
2022/09/11 10:57:15;;;;;;;0.00;0.00;;;22.10;75.90;;;;;;4159510;28;20222;-63
2022/09/11 11:00:07;;;;;;;0.05;0.05;;;22.10;75.60;;;;;;4158020;28;20044;-63
2022/09/11 11:02:51;;;;;;;0.00;0.00;;;22.10;75.40;;;;;;4158076;28;20084;-64
2022/09/11 11:05:39;;;;;;;0.10;0.10;;;22.10;75.20;;;;;;4172854;28;20179;-63
2022/09/11 11:08:47;;;;;;;1.95;1.55;;;22.10;75.10;;;;;;4159477;28;20184;-63
2022/09/11 11:11:45;;;;;;;0.00;0.00;;;22.10;75.10;;;;;;4157644;28;20064;-64
2022/09/11 11:14:46;;;;;;;0.00;0.00;;;22.10;75.10;;;;;;4174386;28;20618;-67
2022/09/11 11:17:39;;;;;;;0.50;0.50;;;22.10;76.00;;;;;;4176061;28;20545;-67
2022/09/11 11:20:33;;;;;;;0.00;0.00;;;22.10;76.00;;;;;;4177542;28;20545;-69
2022/09/11 11:23:47;;;;;;;0.22;0.22;;;22.10;75.10;;;;;;4177457;28;20055;-68
2022/09/11 11:26:45;;;;;;;0.00;0.00;;;22.10;75.00;;;;;;4161021;28;20106;-63
2022/09/11 11:29:57;;;;;;;0.00;0.00;;;22.10;74.80;;;;;;4177266;28;20141;-63
2022/09/11 11:32:53;;;;;;;0.00;0.00;;;22.10;74.70;;;;;;4159724;28;20131;-64
2022/09/11 11:35:40;;;;;;;0.00;0.00;;;22.10;74.80;;;;;;4176865;28;20094;-63
2022/09/11 11:38:32;;;;;;;0.00;0.00;;;22.10;74.80;;;;;;4162323;28;20075;-63
2022/09/11 11:41:15;;;;;;;;;;;22.10;74.90;;;;;;4177255;28;20098;-65
2022/09/11 11:44:02;;;;;;;0.00;0.00;;;22.10;74.80;;;;;;4176986;28;20075;-67
2022/09/11 11:46:48;;;;;;;0.25;0.25;;;22.10;74.80;;;;;;4160541;28;20065;-66
2022/09/11 11:49:49;;;;;;;0.00;0.00;;;22.10;74.90;;;;;;4162133;28;20403;-67
2022/09/11 11:52:40;;;;;;;0.00;0.00;;;22.10;74.80;;;;;;4176806;28;20151;-64
2022/09/11 11:55:25;;;;;;;0.10;0.10;;;22.10;74.80;;;;;;4177017;28;20737;-67
2022/09/11 11:58:16;;;;;;;0.00;0.00;;;22.10;74.80;;;;;;4175382;28;20495;-61
2022/09/11 12:01:02;;;;;;;0.35;0.35;;;22.10;74.90;;;;;;4161933;28;20048;-62
2022/09/11 12:03:47;;;;;;;0.00;0.00;;;22.10;74.90;;;;;;4160347;28;20055;-61
2022/09/11 12:06:28;;;;;;;0.00;0.00;;;22.20;75.30;;;;;;4160048;28;20167;-61
2022/09/11 12:09:09;;;;;;;1.02;1.02;;;22.20;75.20;;;;;;4158794;28;20063;-62
2022/09/11 12:11:52;;;;;;;0.00;0.00;;;22.20;75.00;;;;;;4159650;28;20199;-62
2022/09/11 12:14:35;;;;;;;0.00;0.00;;;22.20;74.90;;;;;;4161397;28;20049;-62
2022/09/11 12:17:24;;;;;;;0.00;0.00;;;22.20;74.90;;;;;;4160033;28;20189;-62
2022/09/11 12:20:34;;;;;;;0.00;0.00;;;22.30;74.80;;;;;;4160590;28;20059;-62
2022/09/11 12:23:55;;;;;;;0.00;0.00;;;22.30;74.80;;;;;;4160333;28;20068;-62
2022/09/11 12:26:35;;;;;;;0.00;0.00;;;22.30;74.70;;;;;;4158186;28;20522;-62
2022/09/11 12:30:07;;;;;;;0.30;0.30;;;22.30;74.50;;;;;;4160202;28;20048;-68
2022/09/11 12:32:50;;;;;;;0.03;0.03;;;22.30;74.50;;;;;;4176440;28;20064;-66
2022/09/11 12:35:41;;;;;;;0.10;0.10;;;22.30;74.40;;;;;;4159898;28;20467;-66
2022/09/11 12:38:25;;;;;;;;;;;22.30;74.40;;;;;;4159712;28;20111;-66
2022/09/11 12:41:12;;;;;;;0.00;0.00;;;22.30;74.40;;;;;;4160859;28;19951;-66
2022/09/11 12:43:54;;;;;;;0.08;0.08;;;22.30;74.50;;;;;;4160896;28;20057;-66
2022/09/11 12:47:12;;;;;;;0.43;0.43;;;22.30;74.50;;;;;;4161076;28;20123;-66
2022/09/11 12:49:58;;;;;;;0.00;0.00;;;22.30;74.40;;;;;;4158369;28;20064;-66
2022/09/11 12:52:47;;;;;;;0.60;0.60;;;22.30;74.50;;;;;;4159460;28;20258;-67
2022/09/11 12:55:36;;;;;;;0.52;0.52;;;22.30;74.50;;;;;;4161088;28;20475;-62
2022/09/11 12:58:27;;;;;;;0.08;0.08;;;22.30;74.50;;;;;;4159313;28;20056;-62
2022/09/11 13:01:15;;;;;;;;;;;22.30;74.50;;;;;;4159722;28;20059;-67
2022/09/11 13:04:02;;;;;;;0.00;0.00;;;22.30;74.50;;;;;;4159474;28;20055;-66
2022/09/11 13:06:49;;;;;;;0.00;0.00;;;22.30;74.50;;;;;;4161061;28;20080;-67
2022/09/11 13:09:33;;;;;;;0.00;0.00;;;22.30;74.60;;;;;;4159530;28;20052;-67
2022/09/11 13:12:48;;;;;;;1.17;0.75;;;22.30;74.50;;;;;;4159392;28;20172;-67
2022/09/11 13:15:41;;;;;;;0.00;0.00;;;22.30;74.50;;;;;;4174959;28;20516;-66
2022/09/11 13:18:29;;;;;;;0.00;0.00;;;22.40;74.80;;;;;;4175924;28;21682;-67
2022/09/11 13:21:16;;;;;;;0.10;0.10;;;22.40;74.60;;;;;;4159201;28;20055;-61
2022/09/11 13:24:01;;;;;;;17.98;0.98;;;22.40;74.60;;;;;;4158963;28;20059;-62
2022/09/11 13:26:43;;;;;;;0.08;0.08;;;22.40;74.50;;;;;;4160891;28;20052;-61
2022/09/11 13:29:28;;;;;;;0.10;0.10;;;22.50;74.40;;;;;;4158825;28;20051;-62
2022/09/11 13:32:13;;;;;;;0.00;0.00;;;22.50;74.40;;;;;;4158931;28;20127;-62
2022/09/11 13:35:00;;;;;;;0.00;0.00;;;22.50;74.20;;;;;;4157532;28;20095;-62
2022/09/11 13:37:44;;;;;;;0.52;0.52;;;22.50;74.20;;;;;;4158147;28;20060;-62
2022/09/11 13:40:31;;;;;;;0.00;0.00;;;22.50;75.00;;;;;;4159049;28;20087;-62
2022/09/11 13:43:17;;;;;;;0.00;0.00;;;22.50;74.00;;;;;;4158439;28;20064;-62
2022/09/11 13:46:23;;;;;;;0.20;0.20;;;22.60;74.00;;;;;;4158172;28;20243;-62
2022/09/11 13:49:26;;;;;;;0.00;0.00;;;22.50;73.90;;;;;;4159940;28;20048;-62
2022/09/11 13:52:11;;;;;;;0.00;0.00;;;22.50;73.70;;;;;;4157266;28;20192;-62
2022/09/11 13:54:54;;;;;;;0.00;0.00;;;22.60;73.70;;;;;;4157378;28;20287;-63
2022/09/11 13:57:51;;;;;;;0.00;0.00;;;22.50;73.70;;;;;;4158523;28;20048;-62
2022/09/11 14:00:40;;;;;;;0.00;0.00;;;22.50;73.60;;;;;;4158199;28;20104;-62
2022/09/11 14:03:26;;;;;;;0.30;0.30;;;22.50;73.50;;;;;;4158458;28;20141;-62
2022/09/11 14:06:10;;;;;;;0.73;0.73;;;22.50;73.50;;;;;;4159796;28;20139;-62
2022/09/11 14:08:54;;;;;;;0.00;0.00;;;22.50;73.50;;;;;;4159375;28;20051;-62
2022/09/11 14:11:36;;;;;;;0.13;0.13;;;22.60;73.50;;;;;;4158467;28;20044;-62
2022/09/11 14:14:25;;;;;;;0.47;0.47;;;22.60;73.60;;;;;;4159725;28;20052;-63
2022/09/11 14:17:09;;;;;;;0.80;0.80;;;22.60;73.70;;;;;;4159738;28;20048;-63
2022/09/11 14:19:54;;;;;;;3.17;0.90;;;22.60;73.80;;;;;;4158388;28;20055;-62
2022/09/11 14:22:40;;;;;;;0.75;0.57;;;22.60;73.80;;;;;;4158297;28;20052;-62
2022/09/11 14:25:22;;;;;;;0.20;0.20;;;22.70;73.90;;;;;;4159906;28;20057;-62
2022/09/11 14:28:03;;;;;;;1.38;1.27;;;22.70;73.80;;;;;;4158324;28;20146;-62
2022/09/11 14:31:05;;;;;;;0.13;0.13;;;22.70;73.60;;;;;;4159261;28;20072;-62